createdAt,value
2022-09-18T00:01:39.270Z,406.75
2022-09-18T00:04:10.992Z,396.77
2022-09-18T00:06:41.242Z,401.42
2022-09-18T00:09:14.443Z,410.13
2022-09-18T00:11:46.898Z,411.85
2022-09-18T00:14:20.010Z,418.67
2022-09-18T00:16:48.487Z,403.02
2022-09-18T00:19:18.035Z,416.50
2022-09-18T00:21:49.742Z,414.52
2022-09-18T00:24:18.916Z,414.10
2022-09-18T00:26:48.075Z,415.13
2022-09-18T00:29:18.045Z,406.15
2022-09-18T00:31:46.595Z,409.70
2022-09-18T00:34:15.794Z,408.48
2022-09-18T00:36:43.933Z,404.00
2022-09-18T00:39:13.090Z,417.23
2022-09-18T00:41:44.059Z,414.98
2022-09-18T00:44:29.892Z,408.70
2022-09-18T00:47:29.038Z,403.50
2022-09-18T00:50:10.132Z,410.35
2022-09-18T00:52:54.478Z,403.38
2022-09-18T00:55:29.307Z,416.58
2022-09-18T00:58:00.632Z,412.27
2022-09-18T01:00:29.810Z,410.42
2022-09-18T01:02:59.559Z,402.42
2022-09-18T01:05:54.431Z,418.80
2022-09-18T01:08:56.705Z,410.13
2022-09-18T01:11:51.745Z,409.65
2022-09-18T01:14:41.562Z,401.60
2022-09-18T01:17:16.225Z,409.63
2022-09-18T01:20:41.465Z,404.38
2022-09-18T01:23:49.376Z,407.30
2022-09-18T01:26:50.147Z,391.77
2022-09-18T01:29:32.740Z,423.48
2022-09-18T01:32:28.063Z,410.38
2022-09-18T01:35:40.105Z,388.08
2022-09-18T01:38:27.357Z,404.95
2022-09-18T01:41:16.893Z,399.60
2022-09-18T01:43:45.832Z,416.95
2022-09-18T01:46:19.671Z,412.95
2022-09-18T01:48:59.941Z,411.73
2022-09-18T01:52:18.342Z,411.08
2022-09-18T01:54:50.237Z,405.52
2022-09-18T01:57:52.237Z,415.05
2022-09-18T02:00:21.919Z,399.50
2022-09-18T02:03:03.390Z,407.17
2022-09-18T02:06:03.281Z,406.38
2022-09-18T02:08:41.409Z,405.35
2022-09-18T02:11:13.323Z,405.85
2022-09-18T02:14:06.346Z,407.25
2022-09-18T02:17:11.489Z,404.08
2022-09-18T02:19:57.626Z,407.70
2022-09-18T02:22:30.547Z,400.80
2022-09-18T02:25:04.235Z,397.55
2022-09-18T02:27:34.491Z,406.58
2022-09-18T02:30:05.762Z,409.00
2022-09-18T02:32:39.578Z,410.75
2022-09-18T02:35:10.173Z,402.70
2022-09-18T02:37:47.898Z,403.83
2022-09-18T02:40:33.323Z,409.27
2022-09-18T02:43:40.419Z,404.17
2022-09-18T02:46:21.748Z,401.40
2022-09-18T02:49:17.242Z,403.65
2022-09-18T02:51:59.402Z,407.88
2022-09-18T02:54:41.240Z,401.80
2022-09-18T02:57:20.397Z,407.75
2022-09-18T02:59:56.094Z,413.10
2022-09-18T03:02:25.839Z,395.88
2022-09-18T03:04:54.412Z,401.88
2022-09-18T03:07:29.252Z,407.40
2022-09-18T03:09:59.387Z,399.48
2022-09-18T03:12:27.305Z,405.02
2022-09-18T03:14:55.250Z,408.48
2022-09-18T03:17:24.857Z,401.10
2022-09-18T03:19:54.129Z,403.85
2022-09-18T03:22:21.974Z,406.80
2022-09-18T03:25:35.537Z,418.92
2022-09-18T03:28:04.776Z,405.37
2022-09-18T03:30:37.783Z,413.90
2022-09-18T03:33:06.184Z,406.48
2022-09-18T03:35:34.342Z,397.60
2022-09-18T03:38:02.341Z,408.63
2022-09-18T03:40:32.169Z,411.48
2022-09-18T03:43:04.862Z,399.85
2022-09-18T03:45:32.905Z,409.13
2022-09-18T03:48:03.187Z,403.02
2022-09-18T03:50:31.405Z,412.20
2022-09-18T03:52:59.325Z,396.92
2022-09-18T03:55:47.080Z,401.38
2022-09-18T03:58:35.074Z,408.00
2022-09-18T04:01:13.863Z,394.98
2022-09-18T04:04:07.413Z,407.10
2022-09-18T04:07:00.933Z,405.08
2022-09-18T04:09:49.081Z,408.63
2022-09-18T04:12:17.328Z,403.73
2022-09-18T04:14:48.662Z,409.02
2022-09-18T04:17:16.638Z,402.27
2022-09-18T04:19:44.431Z,407.13
2022-09-18T04:22:12.423Z,407.58
2022-09-18T04:24:40.974Z,399.98
2022-09-18T04:27:09.044Z,401.38
2022-09-18T04:29:38.568Z,418.88
2022-09-18T04:32:08.340Z,403.73
2022-09-18T04:34:36.491Z,417.20
2022-09-18T04:37:09.405Z,399.63
2022-09-18T04:39:38.381Z,406.63
2022-09-18T04:42:06.423Z,404.95
2022-09-18T04:44:34.469Z,405.70
2022-09-18T04:47:02.436Z,398.02
2022-09-18T04:49:30.334Z,401.98
2022-09-18T04:51:58.148Z,402.65
2022-09-18T04:54:26.225Z,400.38
2022-09-18T04:56:54.472Z,406.42
2022-09-18T04:59:22.914Z,403.83
2022-09-18T05:01:55.246Z,398.63
2022-09-18T05:04:23.498Z,411.92
2022-09-18T05:06:57.813Z,396.67
2022-09-18T05:09:26.113Z,399.90
2022-09-18T05:11:54.611Z,406.58
2022-09-18T05:14:24.785Z,403.55
2022-09-18T05:16:56.720Z,411.27
2022-09-18T05:19:37.722Z,396.83
2022-09-18T05:22:11.673Z,399.30
2022-09-18T05:24:44.076Z,397.05
2022-09-18T05:27:14.308Z,402.42
2022-09-18T05:29:42.873Z,415.27
2022-09-18T05:32:20.197Z,410.98
2022-09-18T05:34:50.202Z,392.13
2022-09-18T05:37:19.257Z,421.88
2022-09-18T05:39:51.809Z,416.33
2022-09-18T05:42:19.668Z,416.70
2022-09-18T05:44:47.694Z,410.17
2022-09-18T05:47:21.038Z,410.80
2022-09-18T05:49:49.232Z,409.85
2022-09-18T05:52:16.925Z,421.63
2022-09-18T05:54:45.502Z,412.23
2022-09-18T05:57:13.624Z,403.65
2022-09-18T05:59:41.807Z,402.63
2022-09-18T06:02:14.596Z,400.40
2022-09-18T06:05:01.189Z,399.30
2022-09-18T06:07:29.034Z,401.05
2022-09-18T06:09:59.230Z,401.02
2022-09-18T06:12:27.902Z,404.20
2022-09-18T06:14:56.169Z,399.42
2022-09-18T06:17:27.906Z,412.65
2022-09-18T06:20:00.733Z,396.88
2022-09-18T06:22:28.949Z,398.75
2022-09-18T06:24:58.456Z,402.02
2022-09-18T06:27:33.890Z,412.52
2022-09-18T06:30:02.877Z,401.23
2022-09-18T06:32:34.497Z,408.30
2022-09-18T06:35:02.648Z,417.65
2022-09-18T06:37:30.421Z,404.98
2022-09-18T06:40:11.790Z,415.30
2022-09-18T06:43:05.812Z,397.48
2022-09-18T06:46:05.769Z,403.63
2022-09-18T06:48:40.716Z,398.27
2022-09-18T06:51:09.895Z,414.42
2022-09-18T06:53:58.087Z,416.38
2022-09-18T06:56:26.319Z,405.48
2022-09-18T06:58:55.659Z,419.83
2022-09-18T07:01:24.041Z,419.13
2022-09-18T07:04:03.707Z,404.30
2022-09-18T07:06:45.779Z,404.50
2022-09-18T07:09:15.478Z,404.00
2022-09-18T07:12:04.767Z,403.48
2022-09-18T07:14:47.084Z,407.73
2022-09-18T07:17:18.655Z,400.88
2022-09-18T07:19:49.944Z,408.38
2022-09-18T07:22:20.143Z,403.95
2022-09-18T07:24:51.619Z,402.23
2022-09-18T07:27:19.874Z,403.08
2022-09-18T07:29:50.420Z,419.75
2022-09-18T07:32:22.235Z,412.88
2022-09-18T07:34:50.885Z,411.13
2022-09-18T07:37:30.250Z,408.17
2022-09-18T07:40:36.944Z,417.75
2022-09-18T07:43:10.956Z,425.52
2022-09-18T07:45:45.828Z,416.10
2022-09-18T07:48:14.373Z,412.80
2022-09-18T07:50:47.692Z,410.33
2022-09-18T07:53:18.669Z,420.50
2022-09-18T07:55:49.821Z,410.70
2022-09-18T07:58:19.605Z,410.70
2022-09-18T08:01:03.348Z,412.10
2022-09-18T08:03:35.076Z,417.20
2022-09-18T08:06:12.446Z,411.17
2022-09-18T08:08:59.727Z,413.25
2022-09-18T08:11:56.225Z,405.42
2022-09-18T08:14:47.677Z,415.55
2022-09-18T08:17:26.344Z,416.67
2022-09-18T08:20:07.053Z,416.65
2022-09-18T08:22:55.892Z,409.70
2022-09-18T08:25:27.789Z,420.63
2022-09-18T08:28:04.893Z,417.35
2022-09-18T08:30:47.851Z,428.42
2022-09-18T08:33:16.172Z,422.92
2022-09-18T08:35:44.428Z,444.40
2022-09-18T08:38:25.646Z,444.00
2022-09-18T08:41:26.669Z,441.45
2022-09-18T08:44:05.144Z,432.50
2022-09-18T08:47:00.664Z,433.38
2022-09-18T08:49:45.218Z,440.08
2022-09-18T08:52:23.006Z,437.80
2022-09-18T08:55:31.136Z,459.13
2022-09-18T08:58:56.341Z,450.10
2022-09-18T09:02:09.664Z,454.02
2022-09-18T09:04:37.801Z,456.50
2022-09-18T09:07:39.878Z,455.45
2022-09-18T09:10:31.061Z,477.35
2022-09-18T09:13:17.973Z,454.55
2022-09-18T09:15:54.588Z,478.50
2022-09-18T09:19:13.487Z,467.65
2022-09-18T09:22:23.155Z,497.42
2022-09-18T09:25:06.329Z,472.27
2022-09-18T09:29:00.612Z,477.00
2022-09-18T09:32:21.248Z,473.58
2022-09-18T09:35:26.271Z,482.55
2022-09-18T09:38:42.684Z,507.23
2022-09-18T09:41:39.188Z,501.98
2022-09-18T09:44:49.857Z,501.35
2022-09-18T09:47:57.900Z,494.33
2022-09-18T09:50:31.415Z,507.30
2022-09-18T09:53:04.745Z,536.60
2022-09-18T09:55:43.269Z,522.45
2022-09-18T09:58:35.968Z,536.45
2022-09-18T10:01:46.727Z,556.55
2022-09-18T10:04:51.894Z,544.10
2022-09-18T10:07:46.995Z,536.00
2022-09-18T10:10:41.745Z,541.15
2022-09-18T10:13:40.051Z,533.08
2022-09-18T10:16:22.280Z,539.15
2022-09-18T10:18:51.108Z,537.95
2022-09-18T10:21:24.526Z,547.08
2022-09-18T10:24:08.433Z,566.17
2022-09-18T10:26:54.838Z,562.13
2022-09-18T10:29:23.104Z,549.70
2022-09-18T10:31:59.083Z,566.40
2022-09-18T10:34:49.724Z,560.30
2022-09-18T10:37:30.418Z,573.88
2022-09-18T10:40:05.429Z,596.50
2022-09-18T10:42:37.060Z,580.40
2022-09-18T10:45:30.803Z,611.28
2022-09-18T10:48:23.913Z,618.15
2022-09-18T10:51:00.990Z,644.50
2022-09-18T10:53:43.669Z,627.60
2022-09-18T10:56:21.821Z,641.13
2022-09-18T10:58:53.668Z,667.17
2022-09-18T11:01:27.702Z,658.97
2022-09-18T11:04:04.080Z,647.83
2022-09-18T11:06:37.650Z,651.53
2022-09-18T11:09:27.428Z,646.40
2022-09-18T11:11:56.244Z,645.45
2022-09-18T11:14:33.535Z,666.20
2022-09-18T11:17:05.837Z,630.45
2022-09-18T11:19:40.870Z,642.08
2022-09-18T11:22:34.258Z,658.90
2022-09-18T11:25:15.453Z,620.75
2022-09-18T11:27:53.796Z,619.70
2022-09-18T11:30:28.051Z,602.97
2022-09-18T11:33:10.329Z,608.45
2022-09-18T11:35:46.772Z,608.15
2022-09-18T11:38:20.068Z,599.47
2022-09-18T11:40:55.516Z,593.33
2022-09-18T11:43:34.924Z,583.17
2022-09-18T11:46:47.768Z,588.08
2022-09-18T11:49:22.465Z,572.95
2022-09-18T11:51:58.382Z,580.78
2022-09-18T11:54:56.428Z,595.38
2022-09-18T11:57:40.144Z,569.70
2022-09-18T12:00:12.860Z,557.05
2022-09-18T12:03:05.905Z,562.75
2022-09-18T12:05:59.053Z,560.97
2022-09-18T12:08:55.019Z,549.83
2022-09-18T12:11:51.320Z,567.05
2022-09-18T12:15:20.001Z,544.70
2022-09-18T12:18:03.720Z,551.83
2022-09-18T12:20:44.572Z,532.80
2022-09-18T12:23:23.975Z,545.55
2022-09-18T12:26:13.426Z,524.45
2022-09-18T12:29:19.038Z,545.35
2022-09-18T12:32:24.884Z,567.42
2022-09-18T12:35:39.663Z,518.88
2022-09-18T12:38:19.069Z,529.35
2022-09-18T12:41:28.860Z,563.92
2022-09-18T12:44:11.205Z,525.65
2022-09-18T12:47:02.324Z,567.03
2022-09-18T12:49:55.494Z,530.88
2022-09-18T12:52:32.932Z,535.70
2022-09-18T12:55:27.837Z,537.60
2022-09-18T12:58:43.668Z,514.42
2022-09-18T13:01:50.304Z,515.75
2022-09-18T13:04:33.412Z,543.30
2022-09-18T13:07:46.972Z,537.67
2022-09-18T13:10:31.005Z,521.42
2022-09-18T13:13:09.533Z,526.88
2022-09-18T13:16:03.426Z,520.13
2022-09-18T13:18:40.516Z,517.00
2022-09-18T13:21:30.110Z,521.83
2022-09-18T13:23:59.691Z,522.35
2022-09-18T13:26:32.373Z,511.52
2022-09-18T13:29:01.025Z,513.55
2022-09-18T13:31:38.043Z,525.85
2022-09-18T13:34:18.371Z,520.60
2022-09-18T13:36:47.399Z,527.33
2022-09-18T13:39:19.139Z,509.92
2022-09-18T13:41:53.245Z,526.28
2022-09-18T13:44:28.195Z,543.13
2022-09-18T13:47:09.950Z,519.50
2022-09-18T13:50:00.915Z,536.28
2022-09-18T13:52:35.028Z,532.65
2022-09-18T13:55:25.328Z,535.13
2022-09-18T13:58:31.154Z,533.00
2022-09-18T14:01:10.487Z,533.60
2022-09-18T14:03:42.366Z,532.88
2022-09-18T14:06:35.155Z,533.70
2022-09-18T14:09:55.434Z,530.55
2022-09-18T14:12:25.536Z,534.75
2022-09-18T14:15:21.144Z,518.03
2022-09-18T14:18:16.563Z,533.75
2022-09-18T14:20:52.493Z,534.17
2022-09-18T14:23:35.988Z,191.93
2022-09-18T14:26:31.174Z,61.83
2022-09-18T14:29:27.217Z,477.38
2022-09-18T14:31:58.131Z,501.33
2022-09-18T14:34:37.661Z,52.70
2022-09-18T14:37:29.552Z,568.97
2022-09-18T14:39:59.367Z,560.90
2022-09-18T14:42:38.683Z,589.70
2022-09-18T14:45:13.008Z,607.75
2022-09-18T14:47:44.458Z,13.82
2022-09-18T14:50:35.064Z,14.13
2022-09-18T14:53:21.864Z,13.27
2022-09-18T14:55:56.155Z,12.02
2022-09-18T14:58:36.928Z,15.20
2022-09-18T15:01:19.130Z,19.65
2022-09-18T15:03:50.623Z,17.98
2022-09-18T15:06:45.308Z,15.82
2022-09-18T15:09:16.917Z,20.77
2022-09-18T15:12:01.821Z,17.38
2022-09-18T15:14:46.775Z,18.70
2022-09-18T15:17:25.264Z,22.23
2022-09-18T15:20:14.396Z,19.63
2022-09-18T15:22:42.887Z,25.77
2022-09-18T15:25:20.692Z,25.42
2022-09-18T15:27:49.321Z,28.27
2022-09-18T15:30:23.907Z,18.00
2022-09-18T15:32:56.615Z,18.23
2022-09-18T15:35:30.061Z,13.15
2022-09-18T15:38:03.438Z,15.60
2022-09-18T15:40:36.069Z,16.75
2022-09-18T15:43:11.356Z,17.48
2022-09-18T15:45:39.583Z,18.17
2022-09-18T15:48:39.675Z,22.48
2022-09-18T15:51:25.844Z,21.15
2022-09-18T15:54:12.739Z,34.45
2022-09-18T15:57:01.114Z,28.38
2022-09-18T15:59:37.085Z,136.00
2022-09-18T16:02:37.758Z,28.58
2022-09-18T16:05:14.963Z,39.60
2022-09-18T16:07:58.034Z,29.80
2022-09-18T16:10:35.066Z,30.50
2022-09-18T16:13:26.823Z,625.58
2022-09-18T16:16:24.425Z,599.70
2022-09-18T16:18:56.840Z,596.42
2022-09-18T16:21:28.090Z,601.05
2022-09-18T16:24:01.640Z,587.25
2022-09-18T16:26:35.973Z,592.28
2022-09-18T16:29:13.465Z,584.75
2022-09-18T16:31:41.696Z,571.80
2022-09-18T16:34:21.592Z,582.08
2022-09-18T16:36:50.726Z,570.67
2022-09-18T16:39:25.292Z,589.50
2022-09-18T16:41:53.972Z,570.35
2022-09-18T16:44:22.122Z,583.58
2022-09-18T16:46:53.690Z,579.45
2022-09-18T16:49:26.522Z,565.53
2022-09-18T16:51:55.665Z,569.17
2022-09-18T16:54:24.172Z,562.65
2022-09-18T16:56:56.976Z,559.60
2022-09-18T16:59:30.377Z,572.83
2022-09-18T17:02:04.134Z,548.78
2022-09-18T17:04:34.151Z,541.22
2022-09-18T17:07:03.531Z,543.58
2022-09-18T17:09:32.664Z,546.53
2022-09-18T17:12:00.584Z,545.47
2022-09-18T17:14:28.854Z,545.25
2022-09-18T17:16:56.986Z,532.67
2022-09-18T17:19:24.789Z,533.95
2022-09-18T17:21:53.358Z,526.75
2022-09-18T17:24:25.772Z,525.88
2022-09-18T17:26:54.219Z,530.80
2022-09-18T17:29:22.643Z,528.10
2022-09-18T17:31:52.234Z,527.97
2022-09-18T17:34:22.198Z,525.95
2022-09-18T17:36:50.125Z,520.78
2022-09-18T17:39:21.373Z,518.90
2022-09-18T17:41:50.168Z,516.70
2022-09-18T17:44:18.004Z,511.52
2022-09-18T17:46:51.300Z,509.58
2022-09-18T17:49:20.066Z,512.13
2022-09-18T17:51:49.528Z,496.58
2022-09-18T17:54:18.286Z,505.60
2022-09-18T17:56:46.511Z,486.88
2022-09-18T17:59:15.616Z,495.13
2022-09-18T18:01:46.479Z,489.40
2022-09-18T18:04:16.193Z,485.52
2022-09-18T18:06:50.595Z,469.23
2022-09-18T18:09:19.315Z,482.77
2022-09-18T18:11:48.257Z,476.20
2022-09-18T18:14:16.814Z,477.58
2022-09-18T18:16:49.772Z,479.05
2022-09-18T18:19:22.274Z,516.53
2022-09-18T18:21:50.529Z,462.02
2022-09-18T18:24:19.063Z,461.35
2022-09-18T18:26:48.603Z,458.95
2022-09-18T18:29:18.799Z,459.33
2022-09-18T18:31:49.235Z,457.15
2022-09-18T18:34:22.265Z,459.33
2022-09-18T18:36:50.608Z,459.52
2022-09-18T18:39:20.260Z,460.90
2022-09-18T18:41:49.852Z,459.38
2022-09-18T18:44:18.563Z,466.77
2022-09-18T18:46:46.775Z,461.05
2022-09-18T18:49:16.261Z,465.77
2022-09-18T18:51:52.112Z,470.27
2022-09-18T18:54:22.074Z,456.63
2022-09-18T18:56:50.406Z,461.73
2022-09-18T18:59:19.891Z,468.90
2022-09-18T19:01:48.216Z,468.55
2022-09-18T19:04:19.239Z,461.95
2022-09-18T19:06:49.073Z,472.23
2022-09-18T19:09:22.608Z,448.75
2022-09-18T19:11:52.942Z,452.85
2022-09-18T19:14:29.127Z,440.40
2022-09-18T19:16:57.892Z,439.33
2022-09-18T19:19:28.408Z,453.45
2022-09-18T19:22:00.609Z,443.58
2022-09-18T19:24:30.117Z,443.52
2022-09-18T19:26:58.927Z,436.52
2022-09-18T19:29:29.525Z,479.15
2022-09-18T19:32:00.345Z,443.75
2022-09-18T19:34:28.587Z,426.80
2022-09-18T19:36:56.683Z,437.63
2022-09-18T19:39:24.735Z,441.70
2022-09-18T19:41:55.301Z,457.13
2022-09-18T19:44:34.354Z,428.70
2022-09-18T19:47:16.490Z,443.05
2022-09-18T19:49:44.651Z,438.48
2022-09-18T19:52:21.198Z,436.17
2022-09-18T19:54:51.620Z,431.70
2022-09-18T19:57:20.870Z,433.27
2022-09-18T19:59:52.619Z,429.17
2022-09-18T20:02:21.786Z,435.10
2022-09-18T20:04:49.784Z,422.38
2022-09-18T20:07:17.691Z,426.33
2022-09-18T20:09:45.529Z,428.45
2022-09-18T20:12:14.007Z,430.80
2022-09-18T20:14:42.097Z,434.70
2022-09-18T20:17:11.316Z,423.15
2022-09-18T20:19:39.201Z,433.80
2022-09-18T20:22:07.535Z,424.02
2022-09-18T20:24:35.156Z,440.50
2022-09-18T20:27:03.184Z,426.48
2022-09-18T20:29:31.230Z,432.50
2022-09-18T20:31:59.259Z,429.75
2022-09-18T20:34:27.927Z,426.38
2022-09-18T20:36:55.778Z,428.48
2022-09-18T20:39:23.573Z,447.05
2022-09-18T20:41:51.498Z,433.30
2022-09-18T20:44:19.699Z,427.45
2022-09-18T20:46:50.499Z,426.17
2022-09-18T20:49:18.329Z,419.95
2022-09-18T20:51:46.590Z,427.13
2022-09-18T20:54:20.845Z,433.13
2022-09-18T20:56:49.080Z,433.05
2022-09-18T20:59:45.734Z,427.10
2022-09-18T21:02:17.776Z,427.02
2022-09-18T21:04:54.533Z,422.45
2022-09-18T21:07:41.580Z,421.15
2022-09-18T21:10:18.316Z,423.50
2022-09-18T21:12:47.658Z,415.88
2022-09-18T21:15:15.584Z,426.08
2022-09-18T21:17:43.762Z,434.02
2022-09-18T21:20:12.180Z,429.80
2022-09-18T21:23:00.424Z,423.95
2022-09-18T21:25:31.050Z,418.10
2022-09-18T21:27:59.435Z,409.23
2022-09-18T21:30:27.326Z,411.83
2022-09-18T21:32:55.955Z,413.73
2022-09-18T21:35:23.868Z,405.02
2022-09-18T21:37:52.121Z,404.70
2022-09-18T21:40:20.509Z,407.35
2022-09-18T21:42:48.350Z,399.58
2022-09-18T21:45:20.748Z,405.92
2022-09-18T21:47:50.283Z,403.83
2022-09-18T21:50:19.269Z,403.27
2022-09-18T21:52:47.080Z,409.95
2022-09-18T21:55:14.992Z,403.70
2022-09-18T21:57:43.172Z,408.40
2022-09-18T22:00:12.431Z,407.65
2022-09-18T22:02:43.336Z,408.92
2022-09-18T22:05:12.321Z,396.02
2022-09-18T22:07:40.973Z,406.20
2022-09-18T22:10:09.445Z,396.55
2022-09-18T22:12:39.030Z,397.80
2022-09-18T22:15:07.804Z,405.02
2022-09-18T22:17:35.666Z,406.42
2022-09-18T22:20:03.989Z,406.90
2022-09-18T22:22:34.214Z,411.80
2022-09-18T22:25:03.292Z,400.50
2022-09-18T22:27:31.096Z,400.85
2022-09-18T22:29:59.009Z,409.13
2022-09-18T22:32:27.177Z,411.95
2022-09-18T22:34:55.960Z,406.33
2022-09-18T22:37:23.947Z,414.90
2022-09-18T22:39:51.907Z,400.70
2022-09-18T22:42:19.981Z,406.33
2022-09-18T22:44:48.002Z,410.42
2022-09-18T22:47:15.967Z,404.52
2022-09-18T22:49:43.877Z,404.33
2022-09-18T22:52:11.769Z,407.88
2022-09-18T22:54:39.713Z,401.45
2022-09-18T22:57:07.561Z,408.90
2022-09-18T22:59:35.614Z,410.58
2022-09-18T23:02:08.109Z,402.50
2022-09-18T23:04:36.755Z,415.40
2022-09-18T23:07:04.705Z,393.45
2022-09-18T23:09:32.642Z,398.33
2022-09-18T23:12:00.509Z,411.50
2022-09-18T23:14:31.271Z,402.33
2022-09-18T23:17:00.860Z,403.92
2022-09-18T23:19:34.351Z,403.20
2022-09-18T23:22:02.659Z,400.33
2022-09-18T23:24:31.860Z,404.60
2022-09-18T23:27:00.485Z,413.23
2022-09-18T23:29:31.968Z,404.85
2022-09-18T23:32:00.518Z,412.27
2022-09-18T23:34:31.776Z,403.00
2022-09-18T23:37:00.663Z,399.02
2022-09-18T23:39:32.482Z,404.65
2022-09-18T23:42:02.721Z,401.35
2022-09-18T23:44:31.706Z,393.85
2022-09-18T23:47:00.545Z,394.83
2022-09-18T23:49:29.685Z,400.27
2022-09-18T23:51:59.513Z,389.45
2022-09-18T23:54:31.920Z,392.65
2022-09-18T23:56:59.751Z,396.67
2022-09-18T23:59:28.516Z,398.85
